sensor_id;sensor_type;location;lat;lon;timestamp;P1;durP1;ratioP1;P2;durP2;ratioP2
19183;SDS011;9724;51.194;6.856;2024-03-08T00:00:59;30.30;;;14.77;;
19183;SDS011;9724;51.194;6.856;2024-03-08T00:03:25;25.13;;;14.37;;
19183;SDS011;9724;51.194;6.856;2024-03-08T00:05:52;26.87;;;15.23;;
19183;SDS011;9724;51.194;6.856;2024-03-08T00:08:18;25.67;;;14.07;;
19183;SDS011;9724;51.194;6.856;2024-03-08T00:10:45;25.07;;;14.30;;
19183;SDS011;9724;51.194;6.856;2024-03-08T00:13:12;27.33;;;14.20;;
19183;SDS011;9724;51.194;6.856;2024-03-08T00:15:38;30.27;;;14.67;;
19183;SDS011;9724;51.194;6.856;2024-03-08T00:18:06;27.03;;;14.27;;
19183;SDS011;9724;51.194;6.856;2024-03-08T00:20:33;23.43;;;13.87;;
19183;SDS011;9724;51.194;6.856;2024-03-08T00:22:59;27.13;;;14.27;;
19183;SDS011;9724;51.194;6.856;2024-03-08T00:25:25;24.97;;;14.27;;
19183;SDS011;9724;51.194;6.856;2024-03-08T00:27:52;24.83;;;14.17;;
19183;SDS011;9724;51.194;6.856;2024-03-08T00:30:22;30.73;;;14.97;;
19183;SDS011;9724;51.194;6.856;2024-03-08T00:32:49;23.90;;;14.17;;
19183;SDS011;9724;51.194;6.856;2024-03-08T00:35:15;25.57;;;15.60;;
19183;SDS011;9724;51.194;6.856;2024-03-08T00:37:42;27.77;;;15.00;;
19183;SDS011;9724;51.194;6.856;2024-03-08T00:40:08;26.27;;;14.93;;
19183;SDS011;9724;51.194;6.856;2024-03-08T00:42:36;26.57;;;13.97;;
19183;SDS011;9724;51.194;6.856;2024-03-08T00:45:04;25.50;;;15.23;;
19183;SDS011;9724;51.194;6.856;2024-03-08T00:47:31;24.57;;;14.63;;
19183;SDS011;9724;51.194;6.856;2024-03-08T00:49:58;29.57;;;15.63;;
19183;SDS011;9724;51.194;6.856;2024-03-08T00:52:25;27.60;;;14.50;;
19183;SDS011;9724;51.194;6.856;2024-03-08T00:54:51;27.93;;;14.67;;
19183;SDS011;9724;51.194;6.856;2024-03-08T00:57:18;29.40;;;15.27;;
19183;SDS011;9724;51.194;6.856;2024-03-08T00:59:45;24.97;;;14.97;;
19183;SDS011;9724;51.194;6.856;2024-03-08T01:02:11;26.00;;;14.53;;
19183;SDS011;9724;51.194;6.856;2024-03-08T01:04:38;36.67;;;15.03;;
19183;SDS011;9724;51.194;6.856;2024-03-08T01:07:05;26.83;;;14.40;;
19183;SDS011;9724;51.194;6.856;2024-03-08T01:09:34;27.13;;;14.67;;
19183;SDS011;9724;51.194;6.856;2024-03-08T01:12:00;26.87;;;15.30;;
19183;SDS011;9724;51.194;6.856;2024-03-08T01:14:26;25.30;;;14.33;;
19183;SDS011;9724;51.194;6.856;2024-03-08T01:16:54;28.53;;;14.70;;
19183;SDS011;9724;51.194;6.856;2024-03-08T01:19:20;27.53;;;15.23;;
19183;SDS011;9724;51.194;6.856;2024-03-08T01:21:47;30.73;;;15.23;;
19183;SDS011;9724;51.194;6.856;2024-03-08T01:24:13;26.13;;;14.77;;
19183;SDS011;9724;51.194;6.856;2024-03-08T01:26:40;25.23;;;14.17;;
19183;SDS011;9724;51.194;6.856;2024-03-08T01:29:06;30.57;;;15.77;;
19183;SDS011;9724;51.194;6.856;2024-03-08T01:31:33;26.97;;;15.47;;
19183;SDS011;9724;51.194;6.856;2024-03-08T01:34:02;29.20;;;15.17;;
19183;SDS011;9724;51.194;6.856;2024-03-08T01:36:28;32.63;;;16.27;;
19183;SDS011;9724;51.194;6.856;2024-03-08T01:38:55;25.63;;;14.83;;
19183;SDS011;9724;51.194;6.856;2024-03-08T01:41:21;33.13;;;16.00;;
19183;SDS011;9724;51.194;6.856;2024-03-08T01:43:48;27.93;;;15.40;;
19183;SDS011;9724;51.194;6.856;2024-03-08T01:46:18;29.67;;;15.77;;
19183;SDS011;9724;51.194;6.856;2024-03-08T01:48:45;28.47;;;15.10;;
19183;SDS011;9724;51.194;6.856;2024-03-08T01:51:12;30.83;;;15.57;;
19183;SDS011;9724;51.194;6.856;2024-03-08T01:53:38;28.07;;;15.13;;
19183;SDS011;9724;51.194;6.856;2024-03-08T01:56:06;25.60;;;14.57;;
19183;SDS011;9724;51.194;6.856;2024-03-08T01:58:33;28.87;;;14.97;;
19183;SDS011;9724;51.194;6.856;2024-03-08T02:00:59;33.60;;;15.07;;
19183;SDS011;9724;51.194;6.856;2024-03-08T02:03:26;28.57;;;15.50;;
19183;SDS011;9724;51.194;6.856;2024-03-08T02:05:53;29.90;;;16.07;;
19183;SDS011;9724;51.194;6.856;2024-03-08T02:08:20;28.17;;;15.67;;
19183;SDS011;9724;51.194;6.856;2024-03-08T02:10:48;28.73;;;16.03;;
19183;SDS011;9724;51.194;6.856;2024-03-08T02:13:15;28.73;;;15.00;;
19183;SDS011;9724;51.194;6.856;2024-03-08T02:15:51;29.47;;;15.50;;
19183;SDS011;9724;51.194;6.856;2024-03-08T02:18:18;27.37;;;14.57;;
19183;SDS011;9724;51.194;6.856;2024-03-08T02:20:46;27.97;;;15.57;;
19183;SDS011;9724;51.194;6.856;2024-03-08T02:23:13;31.07;;;15.30;;
19183;SDS011;9724;51.194;6.856;2024-03-08T02:25:40;30.53;;;15.93;;
19183;SDS011;9724;51.194;6.856;2024-03-08T02:28:07;31.97;;;15.20;;
19183;SDS011;9724;51.194;6.856;2024-03-08T02:30:35;31.30;;;16.57;;
19183;SDS011;9724;51.194;6.856;2024-03-08T02:33:05;29.77;;;15.50;;
19183;SDS011;9724;51.194;6.856;2024-03-08T02:35:31;32.20;;;15.80;;
19183;SDS011;9724;51.194;6.856;2024-03-08T02:37:59;28.67;;;15.47;;
19183;SDS011;9724;51.194;6.856;2024-03-08T02:40:25;33.37;;;16.27;;
19183;SDS011;9724;51.194;6.856;2024-03-08T02:42:51;33.37;;;16.10;;
19183;SDS011;9724;51.194;6.856;2024-03-08T02:45:18;27.50;;;15.93;;
19183;SDS011;9724;51.194;6.856;2024-03-08T02:47:46;32.17;;;16.30;;
19183;SDS011;9724;51.194;6.856;2024-03-08T02:50:15;27.53;;;15.13;;
19183;SDS011;9724;51.194;6.856;2024-03-08T02:52:41;28.43;;;15.60;;
19183;SDS011;9724;51.194;6.856;2024-03-08T02:55:09;31.27;;;16.23;;
19183;SDS011;9724;51.194;6.856;2024-03-08T02:57:39;30.03;;;15.67;;
19183;SDS011;9724;51.194;6.856;2024-03-08T03:00:06;29.97;;;15.90;;
19183;SDS011;9724;51.194;6.856;2024-03-08T03:02:34;30.87;;;16.10;;
19183;SDS011;9724;51.194;6.856;2024-03-08T03:05:01;33.53;;;16.97;;
19183;SDS011;9724;51.194;6.856;2024-03-08T03:07:31;32.17;;;16.23;;
19183;SDS011;9724;51.194;6.856;2024-03-08T03:09:57;29.97;;;16.27;;
19183;SDS011;9724;51.194;6.856;2024-03-08T03:12:24;36.23;;;17.20;;
19183;SDS011;9724;51.194;6.856;2024-03-08T03:14:50;32.27;;;16.60;;
19183;SDS011;9724;51.194;6.856;2024-03-08T03:17:17;36.23;;;16.40;;
19183;SDS011;9724;51.194;6.856;2024-03-08T03:19:43;29.87;;;15.13;;
19183;SDS011;9724;51.194;6.856;2024-03-08T03:22:10;30.27;;;16.10;;
19183;SDS011;9724;51.194;6.856;2024-03-08T03:24:36;34.07;;;15.57;;
19183;SDS011;9724;51.194;6.856;2024-03-08T03:27:03;28.10;;;15.73;;
19183;SDS011;9724;51.194;6.856;2024-03-08T03:29:37;31.57;;;16.03;;
19183;SDS011;9724;51.194;6.856;2024-03-08T03:32:03;32.73;;;16.30;;
19183;SDS011;9724;51.194;6.856;2024-03-08T03:34:29;30.70;;;15.93;;
19183;SDS011;9724;51.194;6.856;2024-03-08T03:36:56;27.37;;;15.27;;
19183;SDS011;9724;51.194;6.856;2024-03-08T03:39:22;30.40;;;15.80;;
19183;SDS011;9724;51.194;6.856;2024-03-08T03:41:49;28.10;;;15.23;;
19183;SDS011;9724;51.194;6.856;2024-03-08T03:44:17;32.43;;;15.57;;
19183;SDS011;9724;51.194;6.856;2024-03-08T03:46:44;29.27;;;15.97;;
19183;SDS011;9724;51.194;6.856;2024-03-08T03:49:13;35.43;;;16.60;;
19183;SDS011;9724;51.194;6.856;2024-03-08T03:51:39;33.07;;;15.53;;
19183;SDS011;9724;51.194;6.856;2024-03-08T03:54:05;31.43;;;15.87;;
19183;SDS011;9724;51.194;6.856;2024-03-08T03:56:33;30.37;;;15.70;;
19183;SDS011;9724;51.194;6.856;2024-03-08T03:58:59;31.57;;;15.87;;
19183;SDS011;9724;51.194;6.856;2024-03-08T04:01:25;30.63;;;16.17;;
19183;SDS011;9724;51.194;6.856;2024-03-08T04:03:53;31.57;;;15.80;;
19183;SDS011;9724;51.194;6.856;2024-03-08T04:06:19;29.77;;;15.40;;
19183;SDS011;9724;51.194;6.856;2024-03-08T04:08:45;30.73;;;15.80;;
19183;SDS011;9724;51.194;6.856;2024-03-08T04:11:12;30.00;;;16.10;;
19183;SDS011;9724;51.194;6.856;2024-03-08T04:13:38;29.73;;;15.43;;
19183;SDS011;9724;51.194;6.856;2024-03-08T04:16:05;33.17;;;16.50;;
19183;SDS011;9724;51.194;6.856;2024-03-08T04:18:33;28.73;;;15.27;;
19183;SDS011;9724;51.194;6.856;2024-03-08T04:21:02;29.03;;;15.67;;
19183;SDS011;9724;51.194;6.856;2024-03-08T04:23:28;35.00;;;16.13;;
19183;SDS011;9724;51.194;6.856;2024-03-08T04:25:55;32.00;;;15.80;;
19183;SDS011;9724;51.194;6.856;2024-03-08T04:28:21;32.03;;;15.93;;
19183;SDS011;9724;51.194;6.856;2024-03-08T04:30:47;29.23;;;16.23;;
19183;SDS011;9724;51.194;6.856;2024-03-08T04:33:14;29.07;;;15.13;;
19183;SDS011;9724;51.194;6.856;2024-03-08T04:35:43;33.20;;;15.77;;
19183;SDS011;9724;51.194;6.856;2024-03-08T04:38:12;30.37;;;15.50;;
19183;SDS011;9724;51.194;6.856;2024-03-08T04:40:38;33.73;;;15.83;;
19183;SDS011;9724;51.194;6.856;2024-03-08T04:43:04;31.83;;;16.57;;
19183;SDS011;9724;51.194;6.856;2024-03-08T04:45:31;28.47;;;15.03;;
19183;SDS011;9724;51.194;6.856;2024-03-08T04:47:58;31.80;;;15.50;;
19183;SDS011;9724;51.194;6.856;2024-03-08T04:50:24;29.13;;;15.27;;
19183;SDS011;9724;51.194;6.856;2024-03-08T04:52:50;29.03;;;15.33;;
19183;SDS011;9724;51.194;6.856;2024-03-08T04:55:17;34.43;;;15.70;;
19183;SDS011;9724;51.194;6.856;2024-03-08T04:57:46;30.83;;;16.17;;
19183;SDS011;9724;51.194;6.856;2024-03-08T05:00:13;31.17;;;15.40;;
19183;SDS011;9724;51.194;6.856;2024-03-08T05:02:40;30.13;;;15.33;;
19183;SDS011;9724;51.194;6.856;2024-03-08T05:05:07;30.57;;;15.17;;
19183;SDS011;9724;51.194;6.856;2024-03-08T05:07:34;31.87;;;15.80;;
19183;SDS011;9724;51.194;6.856;2024-03-08T05:10:01;29.57;;;15.30;;
19183;SDS011;9724;51.194;6.856;2024-03-08T05:12:28;31.97;;;15.60;;
19183;SDS011;9724;51.194;6.856;2024-03-08T05:14:54;23.47;;;12.27;;
19183;SDS011;9724;51.194;6.856;2024-03-08T05:17:21;36.43;;;18.27;;
19183;SDS011;9724;51.194;6.856;2024-03-08T05:19:49;33.73;;;16.30;;
19183;SDS011;9724;51.194;6.856;2024-03-08T05:22:15;28.60;;;14.77;;
19183;SDS011;9724;51.194;6.856;2024-03-08T05:24:42;29.90;;;16.43;;
19183;SDS011;9724;51.194;6.856;2024-03-08T05:27:08;32.77;;;15.40;;
19183;SDS011;9724;51.194;6.856;2024-03-08T05:29:35;28.73;;;15.47;;
19183;SDS011;9724;51.194;6.856;2024-03-08T05:32:02;37.23;;;16.27;;
19183;SDS011;9724;51.194;6.856;2024-03-08T05:34:29;32.47;;;15.50;;
19183;SDS011;9724;51.194;6.856;2024-03-08T05:36:55;29.30;;;15.17;;
19183;SDS011;9724;51.194;6.856;2024-03-08T05:39:23;36.53;;;17.33;;
19183;SDS011;9724;51.194;6.856;2024-03-08T05:41:50;29.13;;;15.57;;
19183;SDS011;9724;51.194;6.856;2024-03-08T05:44:16;32.17;;;15.67;;
19183;SDS011;9724;51.194;6.856;2024-03-08T05:46:43;31.13;;;16.63;;
19183;SDS011;9724;51.194;6.856;2024-03-08T05:49:10;32.57;;;15.63;;
19183;SDS011;9724;51.194;6.856;2024-03-08T05:51:37;31.73;;;15.93;;
19183;SDS011;9724;51.194;6.856;2024-03-08T05:54:05;33.80;;;16.03;;
19183;SDS011;9724;51.194;6.856;2024-03-08T05:56:34;34.50;;;16.10;;
19183;SDS011;9724;51.194;6.856;2024-03-08T05:59:01;31.17;;;15.73;;
19183;SDS011;9724;51.194;6.856;2024-03-08T06:01:28;30.77;;;15.37;;
19183;SDS011;9724;51.194;6.856;2024-03-08T06:03:55;31.90;;;16.30;;
19183;SDS011;9724;51.194;6.856;2024-03-08T06:06:22;30.23;;;14.57;;
19183;SDS011;9724;51.194;6.856;2024-03-08T06:08:49;37.67;;;16.13;;
19183;SDS011;9724;51.194;6.856;2024-03-08T06:11:16;30.60;;;16.20;;
19183;SDS011;9724;51.194;6.856;2024-03-08T06:13:42;32.30;;;16.43;;
19183;SDS011;9724;51.194;6.856;2024-03-08T06:16:09;36.10;;;16.87;;
19183;SDS011;9724;51.194;6.856;2024-03-08T06:18:35;31.53;;;16.13;;
19183;SDS011;9724;51.194;6.856;2024-03-08T06:21:03;28.93;;;15.77;;
19183;SDS011;9724;51.194;6.856;2024-03-08T06:23:30;31.87;;;16.13;;
19183;SDS011;9724;51.194;6.856;2024-03-08T06:25:57;33.00;;;15.40;;
19183;SDS011;9724;51.194;6.856;2024-03-08T06:28:25;31.07;;;15.87;;
19183;SDS011;9724;51.194;6.856;2024-03-08T06:30:51;30.50;;;13.57;;
19183;SDS011;9724;51.194;6.856;2024-03-08T06:33:18;32.47;;;15.93;;
19183;SDS011;9724;51.194;6.856;2024-03-08T06:35:45;28.00;;;15.13;;
19183;SDS011;9724;51.194;6.856;2024-03-08T06:38:12;33.63;;;15.97;;
19183;SDS011;9724;51.194;6.856;2024-03-08T06:40:41;30.90;;;15.57;;
19183;SDS011;9724;51.194;6.856;2024-03-08T06:43:08;35.10;;;15.90;;
19183;SDS011;9724;51.194;6.856;2024-03-08T06:45:36;34.87;;;15.40;;
19183;SDS011;9724;51.194;6.856;2024-03-08T06:48:03;33.13;;;15.70;;
19183;SDS011;9724;51.194;6.856;2024-03-08T06:50:35;27.17;;;14.47;;
19183;SDS011;9724;51.194;6.856;2024-03-08T06:53:02;30.27;;;14.33;;
19183;SDS011;9724;51.194;6.856;2024-03-08T06:55:29;33.87;;;16.20;;
19183;SDS011;9724;51.194;6.856;2024-03-08T06:57:55;30.77;;;15.97;;
19183;SDS011;9724;51.194;6.856;2024-03-08T07:00:22;31.93;;;15.37;;
19183;SDS011;9724;51.194;6.856;2024-03-08T07:02:52;34.23;;;15.60;;
19183;SDS011;9724;51.194;6.856;2024-03-08T07:05:19;31.77;;;14.90;;
19183;SDS011;9724;51.194;6.856;2024-03-08T07:07:45;33.77;;;16.20;;
19183;SDS011;9724;51.194;6.856;2024-03-08T07:10:14;28.83;;;15.00;;
19183;SDS011;9724;51.194;6.856;2024-03-08T07:12:41;33.33;;;16.17;;
19183;SDS011;9724;51.194;6.856;2024-03-08T07:15:08;29.60;;;15.00;;
19183;SDS011;9724;51.194;6.856;2024-03-08T07:17:39;31.57;;;15.70;;
19183;SDS011;9724;51.194;6.856;2024-03-08T07:20:06;30.57;;;14.43;;
19183;SDS011;9724;51.194;6.856;2024-03-08T07:22:37;32.73;;;15.77;;
19183;SDS011;9724;51.194;6.856;2024-03-08T07:25:04;34.33;;;16.77;;
19183;SDS011;9724;51.194;6.856;2024-03-08T07:27:46;40.20;;;16.03;;
19183;SDS011;9724;51.194;6.856;2024-03-08T07:30:13;33.30;;;16.20;;
19183;SDS011;9724;51.194;6.856;2024-03-08T07:33:01;26.47;;;15.03;;
19183;SDS011;9724;51.194;6.856;2024-03-08T07:35:28;27.97;;;14.87;;
19183;SDS011;9724;51.194;6.856;2024-03-08T07:37:54;30.43;;;14.87;;
19183;SDS011;9724;51.194;6.856;2024-03-08T07:40:21;26.60;;;13.53;;
19183;SDS011;9724;51.194;6.856;2024-03-08T07:42:49;27.73;;;14.80;;
19183;SDS011;9724;51.194;6.856;2024-03-08T07:45:15;27.37;;;14.70;;
19183;SDS011;9724;51.194;6.856;2024-03-08T07:47:42;33.73;;;15.57;;
19183;SDS011;9724;51.194;6.856;2024-03-08T07:50:08;27.73;;;14.33;;
19183;SDS011;9724;51.194;6.856;2024-03-08T07:52:35;29.57;;;14.60;;
19183;SDS011;9724;51.194;6.856;2024-03-08T07:55:02;27.40;;;14.13;;
19183;SDS011;9724;51.194;6.856;2024-03-08T07:57:29;29.10;;;14.80;;
19183;SDS011;9724;51.194;6.856;2024-03-08T07:59:57;31.20;;;15.13;;
19183;SDS011;9724;51.194;6.856;2024-03-08T08:02:23;27.50;;;14.70;;
19183;SDS011;9724;51.194;6.856;2024-03-08T08:04:49;31.40;;;15.07;;
19183;SDS011;9724;51.194;6.856;2024-03-08T08:07:16;26.47;;;14.30;;
19183;SDS011;9724;51.194;6.856;2024-03-08T08:09:42;28.40;;;14.67;;
19183;SDS011;9724;51.194;6.856;2024-03-08T08:12:09;26.10;;;13.70;;
19183;SDS011;9724;51.194;6.856;2024-03-08T08:14:37;27.27;;;14.90;;
19183;SDS011;9724;51.194;6.856;2024-03-08T08:17:05;29.53;;;15.47;;
19183;SDS011;9724;51.194;6.856;2024-03-08T08:19:34;27.57;;;14.27;;
19183;SDS011;9724;51.194;6.856;2024-03-08T08:22:01;25.90;;;14.00;;
19183;SDS011;9724;51.194;6.856;2024-03-08T08:24:27;24.93;;;12.83;;
19183;SDS011;9724;51.194;6.856;2024-03-08T08:26:54;24.40;;;13.47;;
19183;SDS011;9724;51.194;6.856;2024-03-08T08:29:21;22.60;;;12.50;;
19183;SDS011;9724;51.194;6.856;2024-03-08T08:31:49;22.30;;;12.60;;
19183;SDS011;9724;51.194;6.856;2024-03-08T08:34:16;22.03;;;12.90;;
19183;SDS011;9724;51.194;6.856;2024-03-08T08:36:44;28.53;;;14.17;;
19183;SDS011;9724;51.194;6.856;2024-03-08T08:39:11;24.20;;;12.80;;
19183;SDS011;9724;51.194;6.856;2024-03-08T08:41:39;23.93;;;11.73;;
19183;SDS011;9724;51.194;6.856;2024-03-08T08:44:07;22.67;;;12.13;;
19183;SDS011;9724;51.194;6.856;2024-03-08T08:46:39;20.53;;;12.00;;
19183;SDS011;9724;51.194;6.856;2024-03-08T08:49:07;19.90;;;9.90;;
19183;SDS011;9724;51.194;6.856;2024-03-08T08:51:36;22.10;;;12.63;;
19183;SDS011;9724;51.194;6.856;2024-03-08T08:54:03;22.53;;;12.63;;
19183;SDS011;9724;51.194;6.856;2024-03-08T08:56:29;25.37;;;11.77;;
19183;SDS011;9724;51.194;6.856;2024-03-08T08:58:55;23.60;;;11.97;;
19183;SDS011;9724;51.194;6.856;2024-03-08T09:01:23;22.73;;;12.37;;
19183;SDS011;9724;51.194;6.856;2024-03-08T09:03:49;18.37;;;11.40;;
19183;SDS011;9724;51.194;6.856;2024-03-08T09:06:16;18.53;;;11.37;;
19183;SDS011;9724;51.194;6.856;2024-03-08T09:08:44;20.70;;;11.10;;
19183;SDS011;9724;51.194;6.856;2024-03-08T09:11:11;21.77;;;11.57;;
19183;SDS011;9724;51.194;6.856;2024-03-08T09:13:38;20.10;;;11.30;;
19183;SDS011;9724;51.194;6.856;2024-03-08T09:16:04;21.13;;;11.37;;
19183;SDS011;9724;51.194;6.856;2024-03-08T09:18:32;20.50;;;10.73;;
19183;SDS011;9724;51.194;6.856;2024-03-08T09:20:58;19.87;;;11.13;;
19183;SDS011;9724;51.194;6.856;2024-03-08T09:23:25;22.67;;;12.63;;
19183;SDS011;9724;51.194;6.856;2024-03-08T09:25:56;21.67;;;12.50;;
19183;SDS011;9724;51.194;6.856;2024-03-08T09:28:23;21.67;;;12.17;;
19183;SDS011;9724;51.194;6.856;2024-03-08T09:30:49;21.83;;;12.20;;
19183;SDS011;9724;51.194;6.856;2024-03-08T09:33:25;21.93;;;10.67;;
19183;SDS011;9724;51.194;6.856;2024-03-08T09:35:52;20.97;;;11.73;;
19183;SDS011;9724;51.194;6.856;2024-03-08T09:38:19;24.87;;;12.67;;
19183;SDS011;9724;51.194;6.856;2024-03-08T09:40:46;19.83;;;11.43;;
19183;SDS011;9724;51.194;6.856;2024-03-08T09:43:14;21.10;;;11.73;;
19183;SDS011;9724;51.194;6.856;2024-03-08T09:45:46;21.40;;;12.00;;
19183;SDS011;9724;51.194;6.856;2024-03-08T09:48:15;21.53;;;11.93;;
19183;SDS011;9724;51.194;6.856;2024-03-08T09:50:42;22.80;;;12.60;;
19183;SDS011;9724;51.194;6.856;2024-03-08T09:53:09;24.60;;;12.37;;
19183;SDS011;9724;51.194;6.856;2024-03-08T09:55:37;21.00;;;11.43;;
19183;SDS011;9724;51.194;6.856;2024-03-08T09:58:08;21.53;;;11.37;;
19183;SDS011;9724;51.194;6.856;2024-03-08T10:01:02;22.83;;;12.20;;
19183;SDS011;9724;51.194;6.856;2024-03-08T10:03:30;22.20;;;11.80;;
19183;SDS011;9724;51.194;6.856;2024-03-08T10:05:57;18.87;;;11.30;;
19183;SDS011;9724;51.194;6.856;2024-03-08T10:08:25;17.47;;;10.13;;
19183;SDS011;9724;51.194;6.856;2024-03-08T10:10:52;19.47;;;9.67;;
19183;SDS011;9724;51.194;6.856;2024-03-08T10:13:19;20.17;;;11.00;;
19183;SDS011;9724;51.194;6.856;2024-03-08T10:15:45;13.37;;;7.90;;
19183;SDS011;9724;51.194;6.856;2024-03-08T10:18:12;18.80;;;9.97;;
19183;SDS011;9724;51.194;6.856;2024-03-08T10:20:38;17.73;;;10.63;;
19183;SDS011;9724;51.194;6.856;2024-03-08T10:23:05;22.97;;;10.73;;
19183;SDS011;9724;51.194;6.856;2024-03-08T10:25:37;16.63;;;9.03;;
19183;SDS011;9724;51.194;6.856;2024-03-08T10:28:04;20.30;;;10.97;;
19183;SDS011;9724;51.194;6.856;2024-03-08T10:30:30;16.93;;;9.27;;
19183;SDS011;9724;51.194;6.856;2024-03-08T10:32:58;14.90;;;9.13;;
19183;SDS011;9724;51.194;6.856;2024-03-08T10:35:25;15.60;;;8.67;;
19183;SDS011;9724;51.194;6.856;2024-03-08T10:37:52;15.63;;;8.87;;
19183;SDS011;9724;51.194;6.856;2024-03-08T10:40:24;19.37;;;9.47;;
19183;SDS011;9724;51.194;6.856;2024-03-08T10:42:52;15.30;;;9.07;;
19183;SDS011;9724;51.194;6.856;2024-03-08T10:45:23;13.30;;;7.67;;
19183;SDS011;9724;51.194;6.856;2024-03-08T10:48:08;16.10;;;9.20;;
19183;SDS011;9724;51.194;6.856;2024-03-08T10:50:42;14.27;;;8.27;;
19183;SDS011;9724;51.194;6.856;2024-03-08T10:53:12;15.77;;;9.70;;
19183;SDS011;9724;51.194;6.856;2024-03-08T10:55:40;14.73;;;9.23;;
19183;SDS011;9724;51.194;6.856;2024-03-08T10:58:06;14.80;;;9.00;;
19183;SDS011;9724;51.194;6.856;2024-03-08T11:00:33;14.43;;;8.50;;
19183;SDS011;9724;51.194;6.856;2024-03-08T11:03:02;11.93;;;7.77;;
19183;SDS011;9724;51.194;6.856;2024-03-08T11:05:32;18.63;;;7.67;;
19183;SDS011;9724;51.194;6.856;2024-03-08T11:08:08;13.37;;;7.90;;
19183;SDS011;9724;51.194;6.856;2024-03-08T11:10:47;11.23;;;6.30;;
19183;SDS011;9724;51.194;6.856;2024-03-08T11:13:32;10.37;;;6.60;;
19183;SDS011;9724;51.194;6.856;2024-03-08T11:15:58;12.20;;;7.63;;
19183;SDS011;9724;51.194;6.856;2024-03-08T11:18:26;12.37;;;7.83;;
19183;SDS011;9724;51.194;6.856;2024-03-08T11:20:53;15.90;;;7.17;;
19183;SDS011;9724;51.194;6.856;2024-03-08T11:23:23;12.00;;;7.97;;
19183;SDS011;9724;51.194;6.856;2024-03-08T11:25:51;12.10;;;7.60;;
19183;SDS011;9724;51.194;6.856;2024-03-08T11:28:19;14.00;;;7.73;;
19183;SDS011;9724;51.194;6.856;2024-03-08T11:31:21;14.70;;;7.80;;
19183;SDS011;9724;51.194;6.856;2024-03-08T11:33:48;13.40;;;7.27;;
19183;SDS011;9724;51.194;6.856;2024-03-08T11:36:19;12.50;;;7.60;;
19183;SDS011;9724;51.194;6.856;2024-03-08T11:38:48;11.67;;;7.30;;
19183;SDS011;9724;51.194;6.856;2024-03-08T11:41:14;10.37;;;6.60;;
19183;SDS011;9724;51.194;6.856;2024-03-08T11:43:44;10.33;;;7.13;;
19183;SDS011;9724;51.194;6.856;2024-03-08T11:46:11;15.73;;;8.07;;
19183;SDS011;9724;51.194;6.856;2024-03-08T11:48:38;13.77;;;7.87;;
19183;SDS011;9724;51.194;6.856;2024-03-08T11:51:07;12.63;;;8.03;;
19183;SDS011;9724;51.194;6.856;2024-03-08T11:53:33;11.30;;;7.70;;
19183;SDS011;9724;51.194;6.856;2024-03-08T11:56:06;11.80;;;7.97;;
19183;SDS011;9724;51.194;6.856;2024-03-08T11:58:33;12.90;;;7.57;;
19183;SDS011;9724;51.194;6.856;2024-03-08T12:01:04;12.87;;;7.73;;
19183;SDS011;9724;51.194;6.856;2024-03-08T12:03:31;11.60;;;7.73;;
19183;SDS011;9724;51.194;6.856;2024-03-08T12:05:59;12.03;;;7.63;;
19183;SDS011;9724;51.194;6.856;2024-03-08T12:08:25;13.93;;;8.13;;
19183;SDS011;9724;51.194;6.856;2024-03-08T12:10:53;12.80;;;7.87;;
19183;SDS011;9724;51.194;6.856;2024-03-08T12:13:27;12.70;;;7.23;;
19183;SDS011;9724;51.194;6.856;2024-03-08T12:15:55;10.67;;;7.33;;
19183;SDS011;9724;51.194;6.856;2024-03-08T12:18:24;11.53;;;7.30;;
19183;SDS011;9724;51.194;6.856;2024-03-08T12:20:50;9.17;;;6.10;;
19183;SDS011;9724;51.194;6.856;2024-03-08T12:23:17;12.43;;;7.47;;
19183;SDS011;9724;51.194;6.856;2024-03-08T12:25:43;12.43;;;7.27;;
19183;SDS011;9724;51.194;6.856;2024-03-08T12:28:10;11.63;;;7.47;;
19183;SDS011;9724;51.194;6.856;2024-03-08T12:30:45;12.03;;;7.73;;
19183;SDS011;9724;51.194;6.856;2024-03-08T12:33:12;11.47;;;7.17;;
19183;SDS011;9724;51.194;6.856;2024-03-08T12:35:39;10.23;;;6.70;;
19183;SDS011;9724;51.194;6.856;2024-03-08T12:38:06;10.83;;;6.60;;
19183;SDS011;9724;51.194;6.856;2024-03-08T12:40:33;10.77;;;6.83;;
19183;SDS011;9724;51.194;6.856;2024-03-08T12:43:01;10.67;;;7.60;;
19183;SDS011;9724;51.194;6.856;2024-03-08T12:45:28;12.03;;;7.17;;
19183;SDS011;9724;51.194;6.856;2024-03-08T12:47:56;13.03;;;7.50;;
19183;SDS011;9724;51.194;6.856;2024-03-08T12:50:23;15.37;;;8.20;;
19183;SDS011;9724;51.194;6.856;2024-03-08T12:52:50;10.97;;;7.33;;
19183;SDS011;9724;51.194;6.856;2024-03-08T12:55:19;14.40;;;7.57;;
19183;SDS011;9724;51.194;6.856;2024-03-08T12:57:45;12.23;;;7.90;;
19183;SDS011;9724;51.194;6.856;2024-03-08T13:00:13;9.00;;;6.83;;
19183;SDS011;9724;51.194;6.856;2024-03-08T13:02:44;9.03;;;6.47;;
19183;SDS011;9724;51.194;6.856;2024-03-08T13:05:14;10.87;;;7.43;;
19183;SDS011;9724;51.194;6.856;2024-03-08T13:07:40;13.60;;;7.33;;
19183;SDS011;9724;51.194;6.856;2024-03-08T13:10:11;12.63;;;8.00;;
19183;SDS011;9724;51.194;6.856;2024-03-08T13:12:40;12.10;;;8.07;;
19183;SDS011;9724;51.194;6.856;2024-03-08T13:15:07;11.40;;;7.17;;
19183;SDS011;9724;51.194;6.856;2024-03-08T13:17:36;13.30;;;8.03;;
19183;SDS011;9724;51.194;6.856;2024-03-08T13:20:06;13.03;;;7.93;;
19183;SDS011;9724;51.194;6.856;2024-03-08T13:22:34;12.87;;;7.90;;
19183;SDS011;9724;51.194;6.856;2024-03-08T13:25:01;11.63;;;7.73;;
19183;SDS011;9724;51.194;6.856;2024-03-08T13:27:27;11.37;;;7.00;;
19183;SDS011;9724;51.194;6.856;2024-03-08T13:29:53;15.03;;;8.17;;
19183;SDS011;9724;51.194;6.856;2024-03-08T13:32:20;12.53;;;8.10;;
19183;SDS011;9724;51.194;6.856;2024-03-08T13:34:47;13.07;;;7.57;;
19183;SDS011;9724;51.194;6.856;2024-03-08T13:37:16;13.97;;;7.77;;
19183;SDS011;9724;51.194;6.856;2024-03-08T13:39:43;11.57;;;7.37;;
19183;SDS011;9724;51.194;6.856;2024-03-08T13:42:10;11.73;;;7.73;;
19183;SDS011;9724;51.194;6.856;2024-03-08T13:44:39;12.20;;;7.67;;
19183;SDS011;9724;51.194;6.856;2024-03-08T13:47:09;15.57;;;8.03;;
19183;SDS011;9724;51.194;6.856;2024-03-08T13:49:37;14.33;;;8.33;;
19183;SDS011;9724;51.194;6.856;2024-03-08T13:52:04;15.67;;;8.50;;
19183;SDS011;9724;51.194;6.856;2024-03-08T13:54:31;11.60;;;7.33;;
19183;SDS011;9724;51.194;6.856;2024-03-08T13:56:58;13.50;;;7.73;;
19183;SDS011;9724;51.194;6.856;2024-03-08T13:59:26;14.23;;;7.70;;
19183;SDS011;9724;51.194;6.856;2024-03-08T14:01:55;12.27;;;7.37;;
19183;SDS011;9724;51.194;6.856;2024-03-08T14:04:22;14.80;;;8.07;;
19183;SDS011;9724;51.194;6.856;2024-03-08T14:06:49;14.93;;;7.37;;
19183;SDS011;9724;51.194;6.856;2024-03-08T14:09:17;14.40;;;7.87;;
19183;SDS011;9724;51.194;6.856;2024-03-08T14:11:44;14.10;;;8.20;;
19183;SDS011;9724;51.194;6.856;2024-03-08T14:14:11;13.70;;;8.60;;
19183;SDS011;9724;51.194;6.856;2024-03-08T14:16:38;11.70;;;7.33;;
19183;SDS011;9724;51.194;6.856;2024-03-08T14:19:04;15.00;;;8.43;;
19183;SDS011;9724;51.194;6.856;2024-03-08T14:21:31;11.27;;;7.70;;
19183;SDS011;9724;51.194;6.856;2024-03-08T14:23:58;14.60;;;8.27;;
19183;SDS011;9724;51.194;6.856;2024-03-08T14:26:24;14.73;;;7.67;;
19183;SDS011;9724;51.194;6.856;2024-03-08T14:28:51;11.30;;;7.17;;
19183;SDS011;9724;51.194;6.856;2024-03-08T14:31:20;15.20;;;9.10;;
19183;SDS011;9724;51.194;6.856;2024-03-08T14:33:51;14.53;;;8.30;;
19183;SDS011;9724;51.194;6.856;2024-03-08T14:36:18;13.33;;;8.00;;
19183;SDS011;9724;51.194;6.856;2024-03-08T14:38:45;13.73;;;8.77;;
19183;SDS011;9724;51.194;6.856;2024-03-08T14:41:12;13.17;;;8.37;;